Time;durP1;ratioP1;P1;durP2;ratioP2;P2;SDS_P1;SDS_P2;PMS_P1;PMS_P2;Temp;Humidity;BMP_temperature;BMP_pressure;BME280_temperature;BME280_humidity;BME280_pressure;Samples;Min_cycle;Max_cycle;Signal;HPM_P1;HPM_P2
2022/08/04 00:01:11;;;;;;;11.05;6.37;;;;;;;24.10;100.00;99591.95;1778635;78;21536;-67
2022/08/04 00:03:44;;;;;;;7.17;5.60;;;;;;;24.14;100.00;99584.91;1800565;78;21491;-67
2022/08/04 00:06:19;;;;;;;6.92;5.92;;;;;;;24.15;100.00;99582.27;1784358;78;20900;-66
2022/08/04 00:08:50;;;;;;;9.18;5.72;;;;;;;24.13;100.00;99588.31;1778708;78;21062;-66
2022/08/04 00:11:21;;;;;;;5.60;5.10;;;;;;;24.09;100.00;99586.74;1786439;80;21452;-66
2022/08/04 00:13:59;;;;;;;10.85;5.35;;;;;;;24.04;100.00;99584.55;1787504;80;20997;-66
2022/08/04 00:16:29;;;;;;;6.97;5.78;;;;;;;24.20;100.00;99583.27;1787277;80;20988;-67
2022/08/04 00:19:09;;;;;;;8.33;5.67;;;;;;;24.06;100.00;99582.13;1785021;78;20998;-66
2022/08/04 00:21:38;;;;;;;8.15;5.42;;;;;;;23.91;100.00;99584.83;1776598;80;22933;-67
2022/08/04 00:24:07;;;;;;;7.10;4.60;;;;;;;23.77;100.00;99589.92;1786394;79;21574;-66
2022/08/04 00:26:34;;;;;;;7.85;5.78;;;;;;;23.85;100.00;99587.89;1796632;78;21022;-67
2022/08/04 00:29:01;;;;;;;5.40;4.90;;;;;;;23.96;100.00;99585.80;1795051;78;21024;-68
2022/08/04 00:31:27;;;;;;;6.00;5.22;;;;;;;24.03;100.00;99592.80;1781656;80;21059;-67
2022/08/04 00:33:54;;;;;;;8.25;5.58;;;;;;;24.04;100.00;99589.36;1784483;78;21487;-65
2022/08/04 00:36:20;;;;;;;6.62;5.95;;;;;;;23.94;100.00;99590.44;1781083;79;21465;-67
2022/08/04 00:38:46;;;;;;;6.03;5.42;;;;;;;23.87;100.00;99598.91;1779924;78;21016;-68
2022/08/04 00:41:24;;;;;;;7.53;5.35;;;;;;;23.92;100.00;99599.89;1787351;79;20884;-68
2022/08/04 00:44:22;;;;;;;5.53;5.03;;;;;;;23.98;100.00;99604.48;1788844;79;21462;-67
2022/08/04 00:47:23;;;;;;;10.00;5.08;;;;;;;23.87;100.00;99604.53;1802914;78;21089;-67
2022/08/04 00:50:29;;;;;;;5.95;5.30;;;;;;;23.86;100.00;99607.76;1781756;80;21000;-67
2022/08/04 00:53:08;;;;;;;8.50;5.60;;;;;;;23.99;100.00;99595.42;1782089;80;20997;-68
2022/08/04 00:56:04;;;;;;;6.45;5.85;;;;;;;23.99;100.00;99599.05;1777145;79;21074;-68
2022/08/04 00:59:00;;;;;;;8.45;6.00;;;;;;;23.99;100.00;99595.42;1753128;80;21012;-67
2022/08/04 01:02:10;;;;;;;8.53;5.58;;;;;;;23.98;100.00;99589.02;1771702;80;21071;-67
2022/08/04 01:04:51;;;;;;;6.40;5.80;;;;;;;23.82;100.00;99594.52;1776208;80;21012;-68
2022/08/04 01:07:29;;;;;;;7.80;5.78;;;;;;;23.80;100.00;99602.56;1786328;80;21035;-67
2022/08/04 01:10:23;;;;;;;7.08;5.78;;;;;;;23.81;100.00;99597.15;1781697;78;20988;-67
2022/08/04 01:13:14;;;;;;;6.67;5.80;;;;;;;23.86;100.00;99603.54;1778755;78;21517;-68
2022/08/04 01:15:45;;;;;;;9.50;6.15;;;;;;;23.76;100.00;99600.98;1783389;80;21172;-68
2022/08/04 01:18:23;;;;;;;8.45;5.97;;;;;;;23.80;100.00;99600.34;1780218;78;21087;-67
2022/08/04 01:21:05;;;;;;;11.93;7.28;;;;;;;23.71;100.00;99607.22;1786636;80;21071;-67
2022/08/04 01:24:19;;;;;;;9.00;7.15;;;;;;;23.57;100.00;99612.91;1784549;78;21102;-66
2022/08/04 01:27:07;;;;;;;9.03;7.30;;;;;;;23.49;100.00;99617.74;1779888;78;21468;-66
2022/08/04 01:29:49;;;;;;;9.73;7.22;;;;;;;23.37;100.00;99623.80;1787991;78;21497;-66
2022/08/04 01:32:34;;;;;;;7.95;6.95;;;;;;;23.42;100.00;99630.44;1780253;78;21448;-67
2022/08/04 01:35:21;;;;;;;10.58;8.60;;;;;;;23.28;100.00;99629.84;1785859;78;21016;-67
2022/08/04 01:38:21;;;;;;;16.10;9.10;;;;;;;23.32;100.00;99632.83;1785405;79;20996;-68
2022/08/04 01:40:53;;;;;;;9.85;8.85;;;;;;;23.40;100.00;99632.25;1784608;78;21002;-67
2022/08/04 01:43:20;;;;;;;12.18;9.48;;;;;;;23.28;100.00;99638.27;1783212;79;21396;-68
2022/08/04 01:45:52;;;;;;;14.03;9.05;;;;;;;23.53;100.00;99633.20;1787346;78;21428;-68
2022/08/04 01:48:23;;;;;;;10.75;8.23;;;;;;;23.61;100.00;99632.58;1780203;80;20996;-68
2022/08/04 01:50:52;;;;;;;14.35;8.60;;;;;;;23.64;100.00;99628.95;1799697;78;20947;-68
2022/08/04 01:53:21;;;;;;;12.78;8.83;;;;;;;23.54;100.00;99634.19;1776149;78;20988;-68
2022/08/04 01:55:48;;;;;;;12.07;8.95;;;;;;;23.55;100.00;99630.19;1786696;78;21106;-68
2022/08/04 01:58:18;;;;;;;15.98;10.03;;;;;;;23.68;100.00;99630.53;1765923;80;20974;-67
2022/08/04 02:00:56;;;;;;;14.63;9.45;;;;;;;23.63;100.00;99629.55;1767814;80;21077;-66
2022/08/04 02:03:22;;;;;;;10.38;9.23;;;;;;;23.51;100.00;99627.20;1770402;80;21003;-67
2022/08/04 02:05:49;;;;;;;14.68;10.30;;;;;;;23.53;100.00;99621.95;1783512;80;21042;-67
2022/08/04 02:08:33;;;;;;;10.68;9.50;;;;;;;23.53;100.00;99623.36;1771945;80;22092;-67
2022/08/04 02:11:17;;;;;;;;;;;;;;;23.55;100.00;99622.35;1753210;80;20886;-66
2022/08/04 02:14:11;;;;;;;14.07;10.63;;;;;;;23.56;100.00;99619.13;1772902;80;20405;-67
2022/08/04 02:16:49;;;;;;;15.55;9.25;;;;;;;23.55;100.00;99618.95;1701016;80;21014;-68
2022/08/04 02:19:36;;;;;;;11.75;9.90;;;;;;;23.44;100.00;99626.63;1769711;80;21079;-66
2022/08/04 02:22:08;;;;;;;11.95;9.98;;;;;;;23.37;100.00;99629.42;1768482;80;21072;-65
2022/08/04 02:24:43;;;;;;;12.28;8.45;;;;;;;23.35;100.00;99629.20;1769198;80;20998;-67
2022/08/04 02:27:09;;;;;;;12.37;9.38;;;;;;;23.41;100.00;99633.03;1786466;80;21030;-67
2022/08/04 02:29:45;;;;;;;12.60;9.18;;;;;;;23.46;100.00;99627.00;1771166;80;21018;-67
2022/08/04 02:32:18;;;;;;;10.35;9.25;;;;;;;23.50;100.00;99625.58;1765694;80;21079;-68
2022/08/04 02:35:01;;;;;;;12.43;10.18;;;;;;;23.54;100.00;99625.76;1767410;80;21460;-67
2022/08/04 02:37:30;;;;;;;;;;;;;;;23.65;100.00;99628.55;1768974;80;20999;-66
2022/08/04 02:39:59;;;;;;;11.75;9.75;;;;;;;23.55;100.00;99630.78;1775378;80;20203;-68
2022/08/04 02:42:27;;;;;;;14.60;9.58;;;;;;;23.65;100.00;99631.95;1788578;80;20987;-67
2022/08/04 02:44:56;;;;;;;12.35;10.78;;;;;;;23.61;100.00;99631.18;1780287;80;21062;-67
2022/08/04 02:47:25;;;;;;;12.37;9.53;;;;;;;23.62;100.00;99628.55;1776333;80;21055;-65
2022/08/04 02:49:52;;;;;;;11.30;10.08;;;;;;;23.74;100.00;99625.30;1767198;80;20994;-65
2022/08/04 02:52:19;;;;;;;15.10;10.82;;;;;;;23.71;100.00;99617.69;1773158;80;21101;-65
2022/08/04 02:54:52;;;;;;;14.23;10.48;;;;;;;23.62;100.00;99621.52;1767571;80;21456;-66
2022/08/04 02:57:19;;;;;;;16.80;10.78;;;;;;;23.48;100.00;99618.16;1781765;80;21031;-65
2022/08/04 03:00:17;;;;;;;13.28;10.18;;;;;;;23.40;100.00;99620.17;1778849;80;21588;-65
2022/08/04 03:02:57;;;;;;;14.53;10.55;;;;;;;23.42;100.00;99620.60;1778466;79;21081;-66
2022/08/04 03:05:35;;;;;;;12.78;10.10;;;;;;;23.41;100.00;99619.79;1790629;78;21027;-67
2022/08/04 03:08:41;;;;;;;11.50;9.50;;;;;;;23.34;100.00;99622.58;1751051;80;21027;-67
2022/08/04 03:11:34;;;;;;;16.73;10.32;;;;;;;23.17;100.00;99620.83;1785214;80;20948;-67
2022/08/04 03:14:28;;;;;;;18.20;12.33;;;;;;;23.42;100.00;99619.20;1782245;78;21165;-68
2022/08/04 03:17:28;;;;;;;14.17;12.03;;;;;;;23.53;100.00;99618.55;1736550;80;21019;-68
2022/08/04 03:20:19;;;;;;;13.43;12.13;;;;;;;23.52;100.00;99611.92;1788256;78;21235;-66
2022/08/04 03:23:08;;;;;;;13.25;11.78;;;;;;;23.38;100.00;99619.77;1789740;78;21011;-67
2022/08/04 03:26:22;;;;;;;14.50;11.22;;;;;;;23.33;100.00;99615.38;1774107;80;21071;-68
2022/08/04 03:29:09;;;;;;;20.82;12.50;;;;;;;23.16;100.00;99628.25;1786604;80;21052;-68
2022/08/04 03:32:06;;;;;;;16.60;12.55;;;;;;;23.13;100.00;99627.66;1783088;78;21067;-66
2022/08/04 03:35:03;;;;;;;18.82;12.50;;;;;;;23.09;100.00;99632.69;1786937;78;21003;-67
2022/08/04 03:38:28;;;;;;;15.75;11.85;;;;;;;23.03;100.00;99625.86;1781455;78;21052;-67
2022/08/04 03:41:15;;;;;;;23.97;13.70;;;;;;;22.99;100.00;99632.09;1783476;78;21007;-66
2022/08/04 03:44:08;;;;;;;15.23;12.13;;;;;;;22.95;100.00;99634.91;1760289;80;21161;-67
2022/08/04 03:47:32;;;;;;;19.48;12.73;;;;;;;22.98;100.00;99636.91;1782824;78;21108;-67
2022/08/04 03:50:28;;;;;;;14.38;12.85;;;;;;;23.00;100.00;99636.50;1777195;80;20999;-68
2022/08/04 03:53:24;;;;;;;13.60;11.25;;;;;;;23.01;100.00;99637.31;1756266;80;21020;-66
2022/08/04 03:56:32;;;;;;;17.37;12.20;;;;;;;22.98;100.00;99641.71;1782672;80;21099;-66
2022/08/04 03:59:36;;;;;;;15.35;12.35;;;;;;;22.96;100.00;99647.73;1784067;80;21504;-68
2022/08/04 04:02:23;;;;;;;18.75;12.63;;;;;;;23.09;100.00;99651.55;1786807;80;21393;-68
2022/08/04 04:05:30;;;;;;;16.32;11.90;;;;;;;23.13;100.00;99652.95;1757150;81;21048;-67
2022/08/04 04:08:25;;;;;;;17.27;13.30;;;;;;;23.12;100.00;99651.33;1757477;81;21031;-66
2022/08/04 04:11:03;;;;;;;14.03;12.43;;;;;;;23.14;100.00;99660.97;1782037;80;20972;-66
2022/08/04 04:13:55;;;;;;;15.45;12.45;;;;;;;23.06;100.00;99655.16;1783657;80;21121;-66
2022/08/04 04:16:36;;;;;;;17.35;12.18;;;;;;;23.05;100.00;99659.16;1782834;78;20984;-67
2022/08/04 04:19:31;;;;;;;19.40;11.78;;;;;;;23.06;100.00;99662.19;1784176;78;21027;-67
2022/08/04 04:22:09;;;;;;;20.23;12.85;;;;;;;23.07;100.00;99665.19;1789283;80;20920;-67
2022/08/04 04:25:04;;;;;;;15.58;12.58;;;;;;;23.05;100.00;99661.97;1788950;80;20920;-66
2022/08/04 04:28:09;;;;;;;21.73;13.25;;;;;;;23.03;100.00;99663.78;1782678;80;21987;-67
2022/08/04 04:30:50;;;;;;;28.95;13.28;;;;;;;23.01;100.00;99667.62;1787259;80;21046;-68
2022/08/04 04:33:52;;;;;;;16.15;13.83;;;;;;;22.97;100.00;99664.81;1784096;80;21015;-68
2022/08/04 04:36:49;;;;;;;15.38;12.73;;;;;;;23.09;100.00;99669.22;1783600;80;20990;-66
2022/08/04 04:39:36;;;;;;;14.63;11.95;;;;;;;23.22;100.00;99663.97;1783643;80;21105;-68
2022/08/04 04:42:31;;;;;;;19.85;13.32;;;;;;;23.24;100.00;99666.37;1783771;80;21185;-66
2022/08/04 04:45:27;;;;;;;20.27;12.25;;;;;;;23.34;100.00;99668.36;1783360;80;20966;-66
2022/08/04 04:48:09;;;;;;;13.05;11.45;;;;;;;23.47;100.00;99669.38;1778916;80;20857;-66
2022/08/04 04:51:25;;;;;;;16.17;11.55;;;;;;;23.54;100.00;99662.94;1779997;80;21015;-67
2022/08/04 04:54:09;;;;;;;15.50;13.58;;;;;;;23.55;100.00;99666.73;1784086;79;21039;-66
2022/08/04 04:56:56;;;;;;;;;;;;;;;23.61;100.00;99653.67;1785089;78;21098;-66
2022/08/04 04:59:24;;;;;;;14.07;11.33;;;;;;;23.65;100.00;99654.44;1784634;80;20412;-67
2022/08/04 05:02:05;;;;;;;13.45;12.05;;;;;;;23.59;100.00;99650.64;1788244;80;21035;-67
2022/08/04 05:05:07;;;;;;;17.82;11.55;;;;;;;23.63;100.00;99654.07;1780200;78;20998;-66
2022/08/04 05:08:04;;;;;;;13.28;11.85;;;;;;;23.68;100.00;99648.81;1780686;78;21491;-66
2022/08/04 05:10:47;;;;;;;15.30;12.63;;;;;;;23.87;100.00;99645.91;1782802;80;21130;-66
2022/08/04 05:13:39;;;;;;;16.25;11.97;;;;;;;23.81;100.00;99650.58;1786937;80;20995;-66
2022/08/04 05:16:20;;;;;;;14.15;12.33;;;;;;;23.93;100.00;99650.73;1729998;79;21461;-66
2022/08/04 05:19:23;;;;;;;14.93;12.23;;;;;;;23.91;100.00;99652.34;1789121;80;20980;-67
2022/08/04 05:21:54;;;;;;;17.73;13.75;;;;;;;23.93;100.00;99656.95;1766207;80;21373;-66
2022/08/04 05:24:20;;;;;;;18.73;12.68;;;;;;;24.07;100.00;99654.05;1780484;80;22128;-66
2022/08/04 05:26:58;;;;;;;14.40;12.63;;;;;;;23.95;100.00;99658.14;1780129;80;20952;-67
2022/08/04 05:29:32;;;;;;;17.10;12.90;;;;;;;23.97;100.00;99659.75;1778539;78;21283;-66
2022/08/04 05:32:01;;;;;;;19.32;14.18;;;;;;;24.20;100.00;99656.44;1781860;79;21000;-66
2022/08/04 05:34:31;;;;;;;18.52;14.13;;;;;;;24.22;100.00;99652.62;1788370;79;21081;-67
2022/08/04 05:37:00;;;;;;;18.30;13.58;;;;;;;24.21;100.00;99656.63;1780950;80;21148;-67
2022/08/04 05:39:30;;;;;;;16.42;13.15;;;;;;;24.27;100.00;99653.59;1783208;80;20999;-67
2022/08/04 05:41:57;;;;;;;15.70;12.93;;;;;;;24.30;100.00;99656.17;1791925;78;20996;-66
2022/08/04 05:44:25;;;;;;;16.07;12.65;;;;;;;24.31;100.00;99652.95;1769119;79;20964;-65
2022/08/04 05:46:55;;;;;;;20.32;13.88;;;;;;;24.45;100.00;99663.91;1780859;78;21000;-66
2022/08/04 05:49:22;;;;;;;18.10;13.55;;;;;;;24.37;100.00;99657.55;1781212;78;21114;-65
2022/08/04 05:51:48;;;;;;;15.40;11.68;;;;;;;24.40;100.00;99664.34;1788161;78;21036;-65
2022/08/04 05:54:15;;;;;;;15.43;12.80;;;;;;;24.76;100.00;99659.06;1749682;81;21096;-65
2022/08/04 05:56:41;;;;;;;15.58;12.85;;;;;;;24.89;100.00;99652.33;1719004;81;21088;-66
2022/08/04 05:59:09;;;;;;;19.20;14.80;;;;;;;24.98;100.00;99655.48;1787517;80;21051;-65
2022/08/04 06:01:35;;;;;;;20.02;14.13;;;;;;;24.76;100.00;99657.05;1731033;80;21057;-66
2022/08/04 06:04:03;;;;;;;19.92;14.03;;;;;;;24.77;100.00;99655.83;1791282;80;21468;-66
2022/08/04 06:06:30;;;;;;;18.77;14.13;;;;;;;24.84;100.00;99658.41;1788791;80;21388;-66
2022/08/04 06:08:57;;;;;;;19.25;15.08;;;;;;;24.80;100.00;99656.41;1784939;80;21046;-66
2022/08/04 06:11:26;;;;;;;21.23;13.55;;;;;;;24.74;100.00;99655.85;1781718;80;20984;-66
2022/08/04 06:13:56;;;;;;;17.77;15.25;;;;;;;25.08;100.00;99655.81;1780605;80;21136;-66
2022/08/04 06:16:24;;;;;;;22.90;13.95;;;;;;;24.89;100.00;99652.33;1780173;80;21414;-65
2022/08/04 06:18:52;;;;;;;21.40;14.35;;;;;;;24.86;100.00;99658.77;1790750;80;20970;-65
2022/08/04 06:21:21;;;;;;;18.07;13.38;;;;;;;24.83;100.00;99651.97;1791317;80;21018;-65
2022/08/04 06:23:49;;;;;;;19.57;15.08;;;;;;;24.80;100.00;99661.25;1776704;80;21012;-66
2022/08/04 06:26:18;;;;;;;16.67;14.53;;;;;;;24.74;100.00;99658.07;1784122;78;21166;-66
2022/08/04 06:28:50;;;;;;;21.35;13.88;;;;;;;24.72;100.00;99649.86;1780687;78;21015;-66
2022/08/04 06:31:41;;;;;;;15.80;12.80;;;;;;;24.74;100.00;99657.27;1788039;78;20996;-65
2022/08/04 06:33:51;;;;;;;15.28;13.30;;;;;;;24.76;100.00;99651.42;1783690;80;22169;-66
2022/08/04 06:36:17;;;;;;;17.10;12.73;;;;;;;24.64;100.00;99657.55;1788318;80;20989;-66
2022/08/04 06:38:44;;;;;;;19.12;14.83;;;;;;;24.78;100.00;99663.08;1783600;78;21388;-68
2022/08/04 06:41:11;;;;;;;18.57;13.08;;;;;;;24.88;100.00;99666.20;1783485;80;20844;-66
2022/08/04 06:43:37;;;;;;;17.23;12.47;;;;;;;25.03;100.00;99661.27;1783672;80;21514;-66
2022/08/04 06:46:04;;;;;;;14.28;12.70;;;;;;;25.17;100.00;99656.11;1783674;80;21000;-66
2022/08/04 06:48:30;;;;;;;15.13;13.38;;;;;;;25.25;100.00;99651.19;1784066;80;20979;-66
2022/08/04 06:50:57;;;;;;;14.55;13.05;;;;;;;25.21;100.00;99643.40;1783590;80;21177;-66
2022/08/04 06:53:24;;;;;;;16.12;12.37;;;;;;;25.13;100.00;99642.05;1755391;80;21397;-66
2022/08/04 06:55:51;;;;;;;16.57;12.23;;;;;;;25.24;100.00;99648.19;1786002;80;20951;-65
2022/08/04 06:58:19;;;;;;;16.87;13.32;;;;;;;25.49;100.00;99645.10;1754542;81;21524;-65
2022/08/04 07:00:46;;;;;;;14.78;12.98;;;;;;;25.60;100.00;99640.76;1756612;81;21515;-66
2022/08/04 07:03:13;;;;;;;16.67;12.37;;;;;;;25.61;100.00;99634.48;1724349;83;21162;-66
2022/08/04 07:05:39;;;;;;;14.87;13.30;;;;;;;25.36;100.00;99639.22;1724368;83;21102;-65
2022/08/04 07:08:09;;;;;;;20.52;13.83;;;;;;;25.16;100.00;99625.72;1757009;81;21007;-66
2022/08/04 07:10:36;;;;;;;16.77;13.08;;;;;;;24.97;100.00;99636.19;1720208;83;21055;-65
2022/08/04 07:13:02;;;;;;;15.72;13.75;;;;;;;25.06;100.00;99641.34;1729266;83;21036;-65
2022/08/04 07:15:29;;;;;;;19.80;13.03;;;;;;;25.11;100.00;99639.48;1756145;81;21135;-64
2022/08/04 07:17:58;;;;;;;17.82;13.00;;;;;;;25.09;100.00;99644.13;1756189;81;21011;-65
2022/08/04 07:20:24;;;;;;;18.87;13.65;;;;;;;25.02;100.00;99642.18;1756324;81;20996;-65
2022/08/04 07:22:50;;;;;;;14.68;12.95;;;;;;;25.00;100.00;99644.61;1719987;83;21000;-65
2022/08/04 07:25:17;;;;;;;15.78;13.18;;;;;;;24.87;100.00;99649.13;1727685;81;21520;-66
2022/08/04 07:27:43;;;;;;;20.60;13.88;;;;;;;25.08;100.00;99652.38;1729748;82;21554;-65
2022/08/04 07:30:10;;;;;;;15.50;12.78;;;;;;;25.36;100.00;99645.45;1729665;83;21473;-65
2022/08/04 07:32:37;;;;;;;19.02;13.45;;;;;;;25.44;100.00;99637.70;1728131;81;21048;-65
2022/08/04 07:35:05;;;;;;;18.90;13.38;;;;;;;25.51;100.00;99635.62;1741485;80;21042;-65
2022/08/04 07:37:33;;;;;;;18.15;13.62;;;;;;;25.58;100.00;99632.52;1720069;81;20976;-65
2022/08/04 07:40:00;;;;;;;16.90;12.88;;;;;;;25.67;100.00;99639.90;1733371;81;21111;-65
2022/08/04 07:42:27;;;;;;;17.52;12.85;;;;;;;25.90;100.00;99629.92;1735272;82;20987;-65
2022/08/04 07:44:53;;;;;;;17.75;13.00;;;;;;;25.99;100.00;99629.41;1735919;82;20952;-65
2022/08/04 07:47:20;;;;;;;17.98;13.68;;;;;;;26.08;100.00;99628.28;1735706;81;21445;-65
2022/08/04 07:49:46;;;;;;;16.25;12.47;;;;;;;26.18;100.00;99622.29;1736156;82;21044;-65
2022/08/04 07:52:13;;;;;;;14.73;12.68;;;;;;;26.17;100.00;99622.72;1738690;82;21496;-65
2022/08/04 07:54:40;;;;;;;15.78;12.40;;;;;;;26.22;100.00;99620.83;1709876;82;21499;-65
2022/08/04 07:57:06;;;;;;;14.10;12.58;;;;;;;26.15;100.00;99623.75;1740469;82;21045;-65
2022/08/04 07:59:33;;;;;;;15.93;12.45;;;;;;;26.03;100.00;99622.30;1776782;80;21098;-65
2022/08/04 08:02:00;;;;;;;15.20;12.30;;;;;;;26.15;100.00;99616.70;1774312;80;20964;-64
2022/08/04 08:04:27;;;;;;;17.37;12.63;;;;;;;26.19;100.00;99616.02;1787960;79;21088;-64
2022/08/04 08:06:53;;;;;;;14.73;12.65;;;;;;;26.35;100.00;99626.70;1801705;78;21086;-64
2022/08/04 08:09:20;;;;;;;14.70;12.33;;;;;;;26.48;100.00;99622.05;1795222;79;21520;-65
2022/08/04 08:11:49;;;;;;;18.30;11.93;;;;;;;26.48;100.00;99617.82;1778667;80;21035;-65
2022/08/04 08:14:16;;;;;;;15.35;12.35;;;;;;;26.43;100.00;99618.30;1780091;80;21047;-65
2022/08/04 08:16:43;;;;;;;12.88;11.22;;;;;;;26.53;100.00;99616.53;1779833;80;21115;-64
2022/08/04 08:19:10;;;;;;;17.77;11.90;;;;;;;26.61;100.00;99624.29;1779953;80;20981;-64
2022/08/04 08:21:37;;;;;;;14.73;12.73;;;;;;;26.69;100.00;99618.70;1780171;80;21050;-65
2022/08/04 08:24:04;;;;;;;16.10;11.45;;;;;;;26.80;100.00;99621.33;1741236;82;21060;-64
2022/08/04 08:26:30;;;;;;;14.55;11.48;;;;;;;26.94;100.00;99624.52;1734214;82;21078;-64
2022/08/04 08:28:57;;;;;;;15.38;11.00;;;;;;;27.00;100.00;99620.59;1734001;82;21144;-65
2022/08/04 08:31:23;;;;;;;20.32;12.10;;;;;;;27.18;100.00;99618.06;1733848;82;21094;-65
2022/08/04 08:33:50;;;;;;;16.65;12.30;;;;;;;27.30;100.00;99612.37;1733998;82;21027;-64
2022/08/04 08:36:37;;;;;;;20.88;13.15;;;;;;;27.13;100.00;99614.31;1733824;82;21082;-65
2022/08/04 08:39:30;;;;;;;14.53;12.30;;;;;;;27.11;100.00;99610.52;1732314;82;21509;-64
2022/08/04 08:42:40;;;;;;;15.23;11.53;;;;;;;26.97;100.00;99605.92;1735518;82;21128;-64
2022/08/04 08:45:36;;;;;;;16.65;11.43;;;;;;;26.89;100.00;99601.59;1728388;82;21009;-65
2022/08/04 08:48:17;;;;;;;15.68;12.25;;;;;;;26.82;100.00;99599.70;1704702;84;21469;-65
2022/08/04 08:51:04;;;;;;;16.10;11.88;;;;;;;26.82;100.00;99604.75;1705902;84;21028;-65
2022/08/04 08:54:11;;;;;;;16.40;12.15;;;;;;;27.00;100.00;99608.48;1705861;84;20936;-65
2022/08/04 08:57:13;;;;;;;12.33;10.93;;;;;;;26.99;100.00;99609.09;1706211;84;21165;-66
2022/08/04 09:00:20;;;;;;;13.95;11.80;;;;;;;26.89;100.00;99613.70;1684882;82;20952;-65
2022/08/04 09:03:10;;;;;;;13.10;10.53;;;;;;;26.58;100.00;99616.05;1690878;82;21087;-66
2022/08/04 09:06:10;;;;;;;12.10;10.80;;;;;;;26.49;100.00;99615.80;1699455;82;21028;-66
2022/08/04 09:09:16;;;;;;;15.08;11.18;;;;;;;26.51;100.00;99610.53;1728602;82;21070;-65
2022/08/04 09:11:50;;;;;;;13.35;10.88;;;;;;;26.56;100.00;99619.13;1730809;81;21182;-65
2022/08/04 09:14:24;;;;;;;16.05;9.40;;;;;;;26.52;100.00;99621.20;1723814;81;21575;-65
2022/08/04 09:17:03;;;;;;;14.47;10.60;;;;;;;26.77;100.00;99610.89;1731786;82;21468;-66
2022/08/04 09:19:41;;;;;;;11.57;10.38;;;;;;;26.79;100.00;99612.67;1747129;81;20954;-66
2022/08/04 09:22:20;;;;;;;17.92;10.88;;;;;;;26.92;100.00;99615.67;1743639;81;21001;-66
2022/08/04 09:25:19;;;;;;;10.70;9.65;;;;;;;26.95;100.00;99599.89;1737043;81;21533;-65
2022/08/04 09:27:56;;;;;;;12.85;10.35;;;;;;;26.97;100.00;99600.27;1746592;81;21123;-66
2022/08/04 09:30:46;;;;;;;13.32;9.68;;;;;;;27.10;100.00;99601.25;1784152;78;20939;-66
2022/08/04 09:33:51;;;;;;;12.95;10.23;;;;;;;27.21;100.00;99603.08;1772093;78;21474;-64
2022/08/04 09:36:48;;;;;;;12.47;9.03;;;;;;;27.29;100.00;99600.30;1781944;79;21000;-65
2022/08/04 09:39:38;;;;;;;12.78;10.40;;;;;;;27.40;100.00;99592.98;1785354;80;21595;-66
2022/08/04 09:42:31;;;;;;;17.40;8.70;;;;;;;27.58;100.00;99590.42;1783016;80;21068;-66
2022/08/04 09:45:04;;;;;;;13.25;8.90;;;;;;;27.67;100.00;99590.61;1781759;78;21458;-65
2022/08/04 09:47:54;;;;;;;14.73;10.13;;;;;;;27.87;100.00;99590.44;1788141;80;21417;-67
2022/08/04 09:50:32;;;;;;;13.03;10.35;;;;;;;27.94;100.00;99586.81;1788316;80;20947;-66
2022/08/04 09:53:39;;;;;;;10.48;9.10;;;;;;;27.88;100.00;99583.53;1780836;80;21478;-67
2022/08/04 09:56:13;;;;;;;12.03;9.18;;;;;;;27.94;100.00;99578.97;1697738;81;21064;-65
2022/08/04 09:58:49;;;;;;;;;;;;;;;28.13;100.00;99577.29;1782894;78;21005;-67
2022/08/04 10:01:19;;;;;;;10.72;9.28;;;;;;;28.30;100.00;99579.52;1789531;80;20459;-65
2022/08/04 10:03:51;;;;;;;13.95;10.13;;;;;;;28.40;100.00;99573.46;1776938;80;21403;-66
2022/08/04 10:06:40;;;;;;;10.65;9.53;;;;;;;28.42;100.00;99571.60;1786918;80;21480;-65
2022/08/04 10:09:44;;;;;;;10.75;9.60;;;;;;;28.38;100.00;99571.69;1786556;78;21000;-65
2022/08/04 10:12:43;;;;;;;14.45;9.35;;;;;;;28.37;100.00;99574.97;1786257;79;21511;-65
2022/08/04 10:15:41;;;;;;;11.48;9.45;;;;;;;28.34;100.00;99569.55;1785227;80;21019;-67
2022/08/04 10:18:40;;;;;;;12.20;9.50;;;;;;;28.46;100.00;99570.88;1779895;80;21047;-65
2022/08/04 10:21:18;;;;;;;10.25;8.55;;;;;;;28.59;100.00;99570.97;1712195;82;21484;-65
2022/08/04 10:24:08;;;;;;;12.65;8.85;;;;;;;28.77;100.00;99566.86;1774068;78;21086;-66
2022/08/04 10:26:46;;;;;;;10.38;8.48;;;;;;;28.80;100.00;99570.21;1791508;80;21018;-66
2022/08/04 10:29:42;;;;;;;11.12;8.33;;;;;;;28.89;100.00;99566.74;1791570;80;20991;-65
2022/08/04 10:32:33;;;;;;;11.30;8.88;;;;;;;28.92;100.00;99559.56;1781804;80;21053;-66
2022/08/04 10:35:25;;;;;;;13.48;8.25;;;;;;;29.00;100.00;99563.02;1679351;84;21172;-65
2022/08/04 10:38:21;;;;;;;13.62;8.20;;;;;;;28.92;100.00;99562.40;1766902;78;21541;-66
2022/08/04 10:41:13;;;;;;;15.15;10.20;;;;;;;28.84;100.00;99561.62;1787135;80;20939;-65
2022/08/04 10:44:11;;;;;;;9.70;8.80;;;;;;;28.84;100.00;99553.11;1778937;79;21009;-66
2022/08/04 10:46:45;;;;;;;10.00;8.93;;;;;;;29.00;100.00;99562.23;1783069;79;21000;-66
2022/08/04 10:49:45;;;;;;;12.13;8.70;;;;;;;29.14;100.00;99555.35;1779485;80;21023;-66
2022/08/04 10:52:35;;;;;;;11.68;8.10;;;;;;;29.22;100.00;99553.92;1773881;79;20981;-66
2022/08/04 10:55:24;;;;;;;12.88;8.50;;;;;;;29.20;100.00;99556.41;1782817;80;21003;-67
2022/08/04 10:57:53;;;;;;;11.88;8.23;;;;;;;29.24;100.00;99551.41;1759614;80;21047;-66
2022/08/04 11:00:27;;;;;;;19.45;9.35;;;;;;;29.24;100.00;99547.80;1791136;78;21512;-67
2022/08/04 11:03:00;;;;;;;10.90;8.70;;;;;;;29.00;100.00;99545.23;1790329;79;21749;-65
2022/08/04 11:05:49;;;;;;;10.72;8.10;;;;;;;28.85;100.00;99551.25;1781059;79;21563;-66
2022/08/04 11:08:33;;;;;;;12.47;8.10;;;;;;;28.79;100.00;99538.88;1784732;78;21016;-67
2022/08/04 11:11:14;;;;;;;13.10;8.38;;;;;;;28.81;100.00;99533.56;1810479;78;21043;-68
2022/08/04 11:14:05;;;;;;;10.05;7.97;;;;;;;28.94;100.00;99537.05;1808024;78;20988;-66
2022/08/04 11:16:58;;;;;;;10.63;8.13;;;;;;;29.07;100.00;99537.92;1796921;79;21578;-64
2022/08/04 11:19:45;;;;;;;15.08;8.63;;;;;;;28.97;100.00;99534.13;1796974;79;21422;-66
2022/08/04 11:22:25;;;;;;;15.43;8.80;;;;;;;28.95;100.00;99530.16;1795048;79;21043;-65
2022/08/04 11:25:21;;;;;;;16.73;7.95;;;;;;;29.50;100.00;99535.08;1796684;79;21038;-67
2022/08/04 11:28:01;;;;;;;13.53;8.05;;;;;;;29.51;100.00;99521.08;1792752;78;21050;-68
2022/08/04 11:30:33;;;;;;;10.80;8.23;;;;;;;29.70;100.00;99517.87;1792107;79;21605;-65
2022/08/04 11:33:33;;;;;;;14.70;8.33;;;;;;;29.62;100.00;99519.34;1797598;79;21059;-66
2022/08/04 11:36:14;;;;;;;8.78;7.87;;;;;;;29.46;100.00;99528.09;1797468;79;20980;-67
2022/08/04 11:39:05;;;;;;;11.78;6.72;;;;;;;29.28;100.00;99525.79;1797804;79;20984;-66
2022/08/04 11:42:13;;;;;;;9.58;8.23;;;;;;;28.98;100.00;99530.09;1797329;78;21050;-65
2022/08/04 11:45:05;;;;;;;11.65;8.13;;;;;;;29.24;100.00;99527.31;1811484;78;21793;-66
2022/08/04 11:48:08;;;;;;;12.13;7.55;;;;;;;29.32;100.00;99516.56;1798902;78;21416;-65
2022/08/04 11:50:47;;;;;;;17.23;7.80;;;;;;;29.32;100.00;99520.82;1797117;79;20973;-65
2022/08/04 11:53:22;;;;;;;14.20;7.45;;;;;;;29.35;100.00;99517.08;1797143;79;20915;-68
2022/08/04 11:55:53;;;;;;;12.25;7.92;;;;;;;29.43;100.00;99511.97;1797290;79;21035;-66
2022/08/04 11:58:20;;;;;;;16.20;7.92;;;;;;;29.28;100.00;99508.16;1794585;79;21482;-66
2022/08/04 12:01:27;;;;;;;11.57;7.30;;;;;;;29.31;100.00;99505.67;1789482;79;20990;-66
2022/08/04 12:04:46;;;;;;;12.07;7.17;;;;;;;29.40;100.00;99505.79;1793413;79;20968;-65
2022/08/04 12:07:33;;;;;;;11.73;8.20;;;;;;;29.61;100.00;99504.38;1785371;79;20885;-65
2022/08/04 12:10:38;;;;;;;12.60;8.13;;;;;;;29.65;100.00;99488.64;1785391;79;21083;-68
2022/08/04 12:13:40;;;;;;;10.32;7.72;;;;;;;29.67;100.00;99496.08;1807992;79;21125;-66
2022/08/04 12:16:33;;;;;;;9.83;7.97;;;;;;;29.68;100.00;99499.72;1797113;78;20973;-66